Time;durP1;ratioP1;P1;durP2;ratioP2;P2;SDS_P1;SDS_P2;PMS_P1;PMS_P2;Temp;Humidity;BMP_temperature;BMP_pressure;BME280_temperature;BME280_humidity;BME280_pressure;Samples;Min_cycle;Max_cycle;Signal;HPM_P1;HPM_P2
2022/01/29 00:00:25;;;;;;;47.87;29.13;;;6.40;99.90;;;;;;5096377;28;20196;-89
2022/01/29 00:02:52;;;;;;;44.70;27.93;;;6.40;99.90;;;;;;5096051;28;20249;-88
2022/01/29 00:05:22;;;;;;;45.30;28.10;;;6.50;99.90;;;;;;5095631;28;20190;-88
2022/01/29 00:07:56;;;;;;;44.43;27.00;;;6.40;99.90;;;;;;5095167;28;20193;-89
2022/01/29 00:10:26;;;;;;;47.90;28.50;;;6.40;99.90;;;;;;5094847;28;20211;-88
2022/01/29 00:12:54;;;;;;;46.00;28.13;;;6.50;99.90;;;;;;5096374;28;20217;-87
2022/01/29 00:15:24;;;;;;;50.27;28.47;;;6.40;99.90;;;;;;5098531;28;20212;-88
2022/01/29 00:17:54;;;;;;;47.67;28.10;;;6.40;99.90;;;;;;5099063;28;20205;-86
2022/01/29 00:20:27;;;;;;;52.00;35.58;;;6.40;99.90;;;;;;5099027;28;20449;-87
2022/01/29 00:22:59;;;;;;;49.60;30.30;;;6.50;99.90;;;;;;5099982;28;20280;-87
2022/01/29 00:25:30;;;;;;;45.83;30.63;;;6.50;99.90;;;;;;5099466;28;20303;-87
2022/01/29 00:28:04;;;;;;;47.03;27.70;;;6.50;99.90;;;;;;5099371;28;20212;-89
2022/01/29 00:30:54;;;;;;;52.93;30.87;;;6.60;99.90;;;;;;5102014;28;20203;-87
2022/01/29 00:33:21;;;;;;;48.27;28.73;;;6.60;99.90;;;;;;5099383;28;20213;-89
2022/01/29 00:35:48;;;;;;;48.53;29.07;;;6.70;99.90;;;;;;5099211;28;20208;-87
2022/01/29 00:38:17;;;;;;;52.57;29.53;;;6.60;99.90;;;;;;5098896;28;20205;-89
2022/01/29 00:41:04;;;;;;;49.83;29.00;;;6.50;99.90;;;;;;5100153;28;20212;-88
2022/01/29 00:43:34;;;;;;;47.97;29.70;;;6.70;99.90;;;;;;5099660;28;20211;-85
2022/01/29 00:46:02;;;;;;;49.20;29.03;;;6.60;99.90;;;;;;5100943;28;20308;-86
2022/01/29 00:48:29;;;;;;;52.57;30.37;;;6.60;99.90;;;;;;5099844;28;20208;-88
2022/01/29 00:51:02;;;;;;;48.47;29.00;;;6.50;99.90;;;;;;5100202;28;20212;-90
2022/01/29 00:53:32;;;;;;;52.10;28.67;;;6.50;99.90;;;;;;5100172;28;20550;-88
2022/01/29 00:56:05;;;;;;;57.95;32.90;;;6.50;99.90;;;;;;5096855;28;20492;-88
2022/01/29 00:58:38;;;;;;;50.57;30.57;;;6.60;99.90;;;;;;5098196;28;20217;-91
2022/01/29 01:01:16;;;;;;;50.80;29.77;;;6.60;99.90;;;;;;5100604;28;20193;-88
2022/01/29 01:03:52;;;;;;;49.10;26.70;;;6.60;99.90;;;;;;5102823;28;20287;-86
2022/01/29 01:06:24;;;;;;;55.23;28.73;;;6.60;99.90;;;;;;5100844;28;20193;-87
2022/01/29 01:08:52;;;;;;;51.67;28.70;;;6.60;99.90;;;;;;5099911;28;20209;-88
2022/01/29 01:11:20;;;;;;;59.20;30.27;;;6.60;99.90;;;;;;5100908;28;20287;-87
2022/01/29 01:13:51;;;;;;;55.67;28.40;;;6.80;99.90;;;;;;5099323;28;20224;-88
2022/01/29 01:16:21;;;;;;;53.73;28.90;;;6.80;99.90;;;;;;5099790;28;20655;-87
2022/01/29 01:18:56;;;;;;;55.30;29.63;;;6.90;99.90;;;;;;5100726;28;20684;-87
2022/01/29 01:21:29;;;;;;;59.83;29.73;;;6.90;99.90;;;;;;5101799;28;20215;-88
2022/01/29 01:23:59;;;;;;;54.20;30.00;;;7.00;99.90;;;;;;5098791;28;20190;-89
2022/01/29 01:26:28;;;;;;;48.30;28.60;;;7.00;99.90;;;;;;5100409;28;20193;-87
2022/01/29 01:28:58;;;;;;;45.00;26.67;;;7.00;99.90;;;;;;5098676;28;20220;-88
2022/01/29 01:31:28;;;;;;;48.23;27.93;;;7.00;99.90;;;;;;5099336;28;20216;-86
2022/01/29 01:33:57;;;;;;;58.97;38.22;;;7.00;99.90;;;;;;5097947;28;20497;-86
2022/01/29 01:36:27;;;;;;;54.87;31.83;;;7.00;99.90;;;;;;5098046;28;20189;-90
2022/01/29 01:39:02;;;;;;;51.67;30.03;;;7.00;99.90;;;;;;5096581;28;20248;-89
2022/01/29 01:41:48;;;;;;;52.07;29.50;;;7.00;99.90;;;;;;5099172;28;20676;-88
2022/01/29 01:44:16;;;;;;;51.03;28.70;;;7.00;99.90;;;;;;5078896;28;20205;-91
2022/01/29 01:46:53;;;;;;;53.33;29.20;;;7.00;99.90;;;;;;5078692;28;20225;-89
2022/01/29 01:49:20;;;;;;;55.97;30.90;;;6.90;99.90;;;;;;5092814;28;20215;-87
2022/01/29 01:51:48;;;;;;;57.07;30.47;;;6.90;99.90;;;;;;5100014;28;20197;-86
2022/01/29 01:54:21;;;;;;;53.90;28.53;;;6.70;99.90;;;;;;5098518;28;20675;-86
2022/01/29 01:56:54;;;;;;;58.07;29.33;;;6.80;99.90;;;;;;5097658;28;20193;-88
2022/01/29 01:59:27;;;;;;;52.13;30.27;;;6.90;99.90;;;;;;5098722;28;20243;-91
2022/01/29 02:01:59;;;;;;;52.77;28.23;;;6.80;99.90;;;;;;5100166;28;20216;-88
2022/01/29 02:04:27;;;;;;;53.17;28.40;;;6.90;99.90;;;;;;5099598;28;20200;-91
2022/01/29 02:07:02;;;;;;;57.70;29.63;;;7.00;99.90;;;;;;5099780;28;20202;-88
2022/01/29 02:09:38;;;;;;;64.85;39.30;;;6.90;99.90;;;;;;5098282;28;20448;-87
2022/01/29 02:12:12;;;;;;;57.97;33.17;;;7.00;99.90;;;;;;5099905;28;20185;-88
2022/01/29 02:14:41;;;;;;;58.57;32.17;;;7.00;99.90;;;;;;5098761;28;20185;-87
2022/01/29 02:17:12;;;;;;;49.20;29.07;;;7.00;99.90;;;;;;5098473;28;20259;-89
2022/01/29 02:19:39;;;;;;;60.37;31.13;;;7.00;99.90;;;;;;5097088;28;20233;-89
2022/01/29 02:22:11;;;;;;;49.17;28.90;;;6.90;99.90;;;;;;5096976;28;20202;-87
2022/01/29 02:25:03;;;;;;;49.57;29.10;;;6.90;99.90;;;;;;5097410;28;20208;-86
2022/01/29 02:27:33;;;;;;;52.87;29.63;;;6.90;99.90;;;;;;5096421;28;20204;-88
2022/01/29 02:30:00;;;;;;;50.40;29.17;;;6.90;99.90;;;;;;5097766;28;20200;-88
2022/01/29 02:32:29;;;;;;;54.97;29.93;;;6.90;99.90;;;;;;5096164;28;20667;-88
2022/01/29 02:35:09;;;;;;;49.80;29.33;;;6.80;99.90;;;;;;5095533;28;20209;-87
2022/01/29 02:37:40;;;;;;;50.27;29.60;;;6.90;99.90;;;;;;5097957;28;20201;-86
2022/01/29 02:40:10;;;;;;;47.67;29.47;;;6.90;99.90;;;;;;5097712;28;20225;-87
2022/01/29 02:42:39;;;;;;;56.20;29.67;;;7.00;99.90;;;;;;5099114;28;20228;-85
2022/01/29 02:45:09;;;;;;;52.80;33.90;;;7.20;99.90;;;;;;5098439;28;20430;-85
2022/01/29 02:47:36;;;;;;;46.43;30.63;;;7.10;99.90;;;;;;5099875;28;20594;-88
2022/01/29 02:50:09;;;;;;;52.50;29.47;;;7.20;99.90;;;;;;5098538;28;20212;-88
2022/01/29 02:52:46;;;;;;;47.37;28.23;;;7.30;99.90;;;;;;5099044;28;20201;-87
2022/01/29 02:55:18;;;;;;;48.30;27.50;;;7.30;99.90;;;;;;5099427;28;20223;-90
2022/01/29 02:58:21;;;;;;;42.87;26.23;;;7.30;99.90;;;;;;5098620;28;20205;-88
2022/01/29 03:00:50;;;;;;;38.03;24.37;;;7.30;99.90;;;;;;5096741;28;20232;-89
2022/01/29 03:03:20;;;;;;;35.23;23.50;;;7.40;99.90;;;;;;5096992;28;20205;-88
2022/01/29 03:05:53;;;;;;;42.60;24.23;;;7.30;99.90;;;;;;5098811;28;20193;-88
2022/01/29 03:08:24;;;;;;;35.80;23.30;;;7.40;99.90;;;;;;5097074;28;20280;-90
2022/01/29 03:11:07;;;;;;;39.13;23.70;;;7.50;99.90;;;;;;5097045;28;20289;-86
2022/01/29 03:13:37;;;;;;;36.70;23.37;;;7.50;99.90;;;;;;5097491;28;20197;-88
2022/01/29 03:16:05;;;;;;;34.07;22.30;;;7.50;99.90;;;;;;5096966;28;20216;-88
2022/01/29 03:18:35;;;;;;;38.63;22.23;;;7.50;99.90;;;;;;5097267;28;20624;-90
2022/01/29 03:21:02;;;;;;;32.90;23.25;;;7.50;99.90;;;;;;5096715;28;20434;-87
2022/01/29 03:23:33;;;;;;;33.20;20.73;;;7.60;99.90;;;;;;5097387;28;20216;-89
2022/01/29 03:26:06;;;;;;;27.67;19.17;;;7.50;99.90;;;;;;5097220;28;20668;-87
2022/01/29 03:28:39;;;;;;;28.13;19.93;;;7.50;99.90;;;;;;5096337;28;20296;-89
2022/01/29 03:31:11;;;;;;;29.97;19.83;;;7.50;99.90;;;;;;5096425;28;20192;-88
2022/01/29 03:33:41;;;;;;;29.57;19.20;;;7.60;99.90;;;;;;5096012;28;20207;-88
2022/01/29 03:36:09;;;;;;;26.07;19.07;;;7.70;99.90;;;;;;5094101;28;20205;-87
2022/01/29 03:38:40;;;;;;;25.00;17.63;;;7.70;99.90;;;;;;5095186;28;20200;-88
2022/01/29 03:41:13;;;;;;;25.43;18.03;;;7.70;99.90;;;;;;5094928;28;20217;-88
2022/01/29 03:43:44;;;;;;;27.50;18.23;;;7.80;99.90;;;;;;5095016;28;20205;-88
2022/01/29 03:46:21;;;;;;;21.07;15.73;;;7.90;99.90;;;;;;5077883;28;20219;-87
2022/01/29 03:48:51;;;;;;;21.60;16.00;;;7.90;99.90;;;;;;5075646;28;20205;-88
2022/01/29 03:51:27;;;;;;;17.90;14.00;;;7.90;99.90;;;;;;5078023;28;20206;-87
2022/01/29 03:53:58;;;;;;;15.03;12.30;;;7.90;99.90;;;;;;5076857;28;20612;-88
2022/01/29 03:56:31;;;;;;;17.43;12.90;;;7.90;99.90;;;;;;5077089;28;20201;-88
2022/01/29 03:59:01;;;;;;;15.20;11.77;;;7.90;99.90;;;;;;5076273;28;20206;-88
2022/01/29 04:01:31;;;;;;;13.80;12.23;;;8.00;99.90;;;;;;5075090;28;20225;-88
2022/01/29 04:03:59;;;;;;;16.73;12.83;;;8.00;99.90;;;;;;5077729;28;20201;-89
2022/01/29 04:06:30;;;;;;;14.63;11.20;;;8.00;99.90;;;;;;5075315;28;20209;-89
2022/01/29 04:09:09;;;;;;;12.97;11.13;;;8.10;99.90;;;;;;5074773;28;20241;-88
2022/01/29 04:11:39;;;;;;;14.00;11.80;;;8.10;99.90;;;;;;5075541;28;20602;-88
2022/01/29 04:14:14;;;;;;;12.53;11.23;;;8.10;99.90;;;;;;5076712;28;20722;-89
2022/01/29 04:16:44;;;;;;;11.70;10.57;;;8.10;99.90;;;;;;5077234;28;20205;-89
2022/01/29 04:19:14;;;;;;;13.07;11.13;;;8.20;99.90;;;;;;5075008;28;20202;-89
2022/01/29 04:21:47;;;;;;;11.77;10.67;;;8.20;99.90;;;;;;5076692;28;20213;-89
2022/01/29 04:24:20;;;;;;;12.87;11.43;;;8.20;99.90;;;;;;5075627;28;20248;-90
2022/01/29 04:26:50;;;;;;;12.10;10.87;;;8.20;99.90;;;;;;5076002;28;20209;-88
2022/01/29 04:29:28;;;;;;;12.43;11.13;;;8.20;99.90;;;;;;5077218;28;20194;-89
2022/01/29 04:32:06;;;;;;;12.33;11.17;;;8.20;99.90;;;;;;5078575;28;20217;-87
2022/01/29 04:34:36;;;;;;;11.47;10.37;;;8.10;99.90;;;;;;5077816;28;20294;-86
2022/01/29 04:37:08;;;;;;;12.93;11.60;;;8.10;99.90;;;;;;5075542;28;20194;-87
2022/01/29 04:39:58;;;;;;;12.23;10.97;;;8.10;99.90;;;;;;5076606;28;20201;-88
2022/01/29 04:42:27;;;;;;;12.73;11.43;;;8.20;99.90;;;;;;5083097;28;20229;-90
2022/01/29 04:45:00;;;;;;;12.33;11.10;;;8.30;99.90;;;;;;5096598;28;20213;-86
2022/01/29 04:47:30;;;;;;;12.60;11.30;;;8.20;99.90;;;;;;5096911;28;20308;-90
2022/01/29 04:49:57;;;;;;;12.13;10.83;;;8.30;99.90;;;;;;5097813;28;20235;-90
2022/01/29 04:52:23;;;;;;;12.43;11.17;;;8.40;99.90;;;;;;5087835;28;20210;-87
2022/01/29 04:54:56;;;;;;;12.37;11.17;;;8.40;99.90;;;;;;5076096;28;20209;-89
2022/01/29 04:57:30;;;;;;;12.33;11.13;;;8.40;99.90;;;;;;5077601;28;20206;-87
2022/01/29 04:59:59;;;;;;;11.60;10.50;;;8.50;99.90;;;;;;5087661;28;20228;-90
2022/01/29 05:02:29;;;;;;;11.57;10.37;;;8.60;99.90;;;;;;5105934;28;20204;-88
2022/01/29 05:04:59;;;;;;;11.20;10.03;;;8.50;99.90;;;;;;5109610;28;20208;-86
2022/01/29 05:07:26;;;;;;;12.43;10.40;;;8.50;99.90;;;;;;5108480;28;20254;-87
2022/01/29 05:10:06;;;;;;;11.43;10.30;;;8.60;99.90;;;;;;5105637;28;20248;-88
2022/01/29 05:12:45;;;;;;;11.60;10.27;;;8.60;99.90;;;;;;5098021;28;20193;-89
2022/01/29 05:15:24;;;;;;;12.37;10.30;;;8.70;99.90;;;;;;5098546;28;20195;-88
2022/01/29 05:29:07;;;;;;;10.47;9.37;;;8.70;99.90;;;;;;5098057;28;20660;-86
2022/01/29 05:31:35;;;;;;;12.67;10.23;;;8.70;99.90;;;;;;5098909;28;20209;-88
2022/01/29 05:34:05;;;;;;;11.43;10.43;;;8.70;99.90;;;;;;5098311;28;20546;-86
2022/01/29 05:36:36;;;;;;;11.40;9.40;;;8.70;99.90;;;;;;5098115;28;20667;-85
2022/01/29 05:39:03;;;;;;;12.57;8.83;;;8.80;99.90;;;;;;5097453;28;20213;-86
2022/01/29 05:41:30;;;;;;;9.67;8.87;;;8.80;99.90;;;;;;5097096;28;20240;-87
2022/01/29 05:44:03;;;;;;;12.10;9.53;;;8.80;99.90;;;;;;5097425;28;20702;-86
2022/01/29 05:46:35;;;;;;;10.03;9.03;;;8.90;99.90;;;;;;5097352;28;20205;-85
2022/01/29 05:49:05;;;;;;;13.17;9.03;;;8.90;99.90;;;;;;5095945;28;20205;-86
2022/01/29 05:51:38;;;;;;;9.33;8.40;;;9.00;99.90;;;;;;5096833;28;20192;-85
2022/01/29 05:54:06;;;;;;;9.43;8.57;;;8.90;99.90;;;;;;5097008;28;20192;-84
2022/01/29 05:56:42;;;;;;;10.60;9.03;;;8.80;99.90;;;;;;5097142;28;20201;-86
2022/01/29 05:59:10;;;;;;;10.33;9.27;;;8.80;99.90;;;;;;5096767;28;20212;-87
2022/01/29 06:01:40;;;;;;;9.37;8.47;;;8.80;99.90;;;;;;5093843;28;20232;-85
2022/01/29 06:04:10;;;;;;;12.50;9.30;;;8.90;99.90;;;;;;5096841;28;20287;-86
2022/01/29 06:06:40;;;;;;;9.87;8.87;;;9.00;99.90;;;;;;5096843;28;20629;-87
2022/01/29 06:09:25;;;;;;;9.43;8.63;;;8.90;99.90;;;;;;5096132;28;20208;-89
2022/01/29 06:11:52;;;;;;;10.10;9.10;;;8.80;99.90;;;;;;5097028;28;20204;-87
2022/01/29 06:14:22;;;;;;;9.67;8.67;;;8.80;99.90;;;;;;5097237;28;20200;-87
2022/01/29 06:16:53;;;;;;;9.47;8.67;;;8.80;99.90;;;;;;5097222;28;20220;-89
2022/01/29 06:19:38;;;;;;;9.83;8.83;;;8.80;99.90;;;;;;5097605;28;20544;-87
2022/01/29 06:22:09;;;;;;;10.43;9.23;;;8.70;99.90;;;;;;5096488;28;20303;-87
2022/01/29 06:24:36;;;;;;;12.63;11.43;;;8.70;99.90;;;;;;5096483;28;20487;-87
2022/01/29 06:27:06;;;;;;;9.97;9.07;;;9.00;99.90;;;;;;5096005;28;20201;-87
2022/01/29 06:29:39;;;;;;;11.80;10.47;;;8.90;99.90;;;;;;5098408;28;20195;-87
2022/01/29 06:32:08;;;;;;;10.63;9.23;;;8.80;99.90;;;;;;5097354;28;20205;-88
2022/01/29 06:34:35;;;;;;;10.00;9.00;;;8.80;99.90;;;;;;5098074;28;20193;-86
2022/01/29 06:37:04;;;;;;;10.07;9.03;;;8.90;99.90;;;;;;5097545;28;20205;-86
2022/01/29 06:39:34;;;;;;;11.43;10.43;;;8.90;99.90;;;;;;5095853;28;20722;-88
2022/01/29 06:42:02;;;;;;;10.83;9.73;;;8.90;99.90;;;;;;5095743;28;20721;-86
2022/01/29 06:44:32;;;;;;;11.13;8.90;;;9.00;99.90;;;;;;5094518;28;20201;-90
2022/01/29 06:47:00;;;;;;;11.70;10.50;;;9.00;99.90;;;;;;5095655;28;20216;-87
2022/01/29 06:49:37;;;;;;;10.43;9.27;;;9.10;99.90;;;;;;5094987;28;20216;-87
2022/01/29 06:52:07;;;;;;;10.73;9.47;;;9.20;99.90;;;;;;5094610;28;20208;-85
2022/01/29 06:54:35;;;;;;;10.80;9.33;;;9.20;99.90;;;;;;5095990;28;20212;-89
2022/01/29 06:57:06;;;;;;;11.73;9.20;;;9.20;99.90;;;;;;5096369;28;20193;-89
2022/01/29 06:59:34;;;;;;;11.47;9.00;;;9.10;99.90;;;;;;5095762;28;20205;-86
2022/01/29 07:02:31;;;;;;;11.27;10.20;;;9.10;99.90;;;;;;5093785;28;20438;-89
2022/01/29 07:05:07;;;;;;;15.47;8.80;;;9.20;99.90;;;;;;5096010;28;20212;-88
2022/01/29 07:07:36;;;;;;;13.37;8.87;;;9.30;99.90;;;;;;5096102;28;20557;-86
2022/01/29 07:10:05;;;;;;;9.13;8.33;;;9.30;99.90;;;;;;5095457;28;20210;-88
2022/01/29 07:12:37;;;;;;;10.70;8.37;;;9.30;99.90;;;;;;5094967;28;20205;-89
2022/01/29 07:15:05;;;;;;;9.63;8.43;;;9.30;99.90;;;;;;5095147;28;20212;-86
2022/01/29 07:17:34;;;;;;;9.50;8.43;;;9.40;99.90;;;;;;5096330;28;20193;-87
2022/01/29 07:20:01;;;;;;;12.87;9.07;;;9.30;99.90;;;;;;5096258;28;20216;-88
2022/01/29 07:22:34;;;;;;;11.77;8.53;;;9.30;99.90;;;;;;5095490;28;20235;-86
2022/01/29 07:25:01;;;;;;;10.13;8.50;;;9.40;99.90;;;;;;5094122;28;20211;-85
2022/01/29 07:27:34;;;;;;;10.63;9.60;;;9.30;99.90;;;;;;5096208;28;20189;-86
2022/01/29 07:30:12;;;;;;;11.07;8.93;;;9.40;99.90;;;;;;5096177;28;20216;-89
2022/01/29 07:32:43;;;;;;;11.80;9.77;;;9.30;99.90;;;;;;5095933;28;20205;-86
2022/01/29 07:35:13;;;;;;;10.97;9.83;;;9.30;99.90;;;;;;5095850;28;20189;-81
2022/01/29 07:37:45;;;;;;;12.97;11.73;;;9.50;99.90;;;;;;5094540;28;20441;-85
2022/01/29 07:40:15;;;;;;;14.03;11.03;;;9.50;99.90;;;;;;5095114;28;20199;-87
2022/01/29 07:42:42;;;;;;;12.87;10.67;;;9.60;99.90;;;;;;5095977;28;20249;-90
2022/01/29 07:45:10;;;;;;;12.53;10.63;;;9.60;99.90;;;;;;5094685;28;20204;-91
2022/01/29 07:47:39;;;;;;;11.17;10.07;;;9.60;99.90;;;;;;5094251;28;20211;-85
2022/01/29 07:50:06;;;;;;;12.13;10.57;;;9.60;99.90;;;;;;5095395;28;20212;-86
2022/01/29 07:52:36;;;;;;;11.00;9.63;;;9.50;99.90;;;;;;5096297;28;20215;-85
2022/01/29 07:55:11;;;;;;;13.30;10.47;;;9.60;99.90;;;;;;5096370;28;20652;-90
2022/01/29 07:57:40;;;;;;;10.70;9.60;;;9.60;99.90;;;;;;5095878;28;20204;-87
2022/01/29 08:00:09;;;;;;;10.03;8.33;;;9.70;99.90;;;;;;5094743;28;20212;-86
2022/01/29 08:02:38;;;;;;;12.57;8.90;;;9.70;99.90;;;;;;5093723;28;20233;-87
2022/01/29 08:05:06;;;;;;;10.77;8.73;;;9.60;99.90;;;;;;5094104;28;20193;-86
2022/01/29 08:07:39;;;;;;;9.87;8.47;;;9.60;99.90;;;;;;5094375;28;20296;-86
2022/01/29 08:10:06;;;;;;;9.57;7.90;;;9.60;99.90;;;;;;5094137;28;20196;-90
2022/01/29 08:12:38;;;;;;;9.00;8.13;;;9.50;99.90;;;;;;5093986;28;20211;-88
2022/01/29 08:15:07;;;;;;;10.13;7.77;;;9.50;99.90;;;;;;5094476;28;20651;-90
2022/01/29 08:17:34;;;;;;;10.47;7.93;;;9.50;99.90;;;;;;5094751;28;20307;-87
2022/01/29 08:20:04;;;;;;;8.80;7.40;;;9.60;99.90;;;;;;5093665;28;20205;-86
2022/01/29 08:22:31;;;;;;;8.50;7.77;;;9.50;99.90;;;;;;5094794;28;20232;-87
2022/01/29 08:24:59;;;;;;;8.33;7.50;;;9.50;99.90;;;;;;5094868;28;20185;-90
2022/01/29 08:27:28;;;;;;;8.73;7.17;;;9.50;99.90;;;;;;5094119;28;20182;-91
2022/01/29 08:30:01;;;;;;;10.30;7.80;;;9.50;99.90;;;;;;5092715;28;20196;-84
2022/01/29 08:32:28;;;;;;;12.07;7.53;;;9.50;99.90;;;;;;5093830;28;20265;-81
2022/01/29 08:34:54;;;;;;;9.20;7.90;;;9.50;99.90;;;;;;5098062;28;20193;-82
2022/01/29 08:37:21;;;;;;;8.60;7.80;;;9.60;99.90;;;;;;5099053;28;20212;-84
2022/01/29 08:39:49;;;;;;;11.43;8.23;;;9.50;99.90;;;;;;5098664;28;20200;-84
2022/01/29 08:42:19;;;;;;;8.40;6.90;;;9.50;99.90;;;;;;5080086;28;20659;-82
2022/01/29 08:44:49;;;;;;;12.00;7.73;;;9.60;99.90;;;;;;5098635;28;20222;-85
2022/01/29 08:47:19;;;;;;;8.30;7.10;;;9.50;99.90;;;;;;5095529;28;20190;-87
2022/01/29 08:49:49;;;;;;;10.10;8.10;;;9.60;99.90;;;;;;5099248;28;20217;-87
2022/01/29 08:52:19;;;;;;;7.83;6.93;;;9.50;99.90;;;;;;5100029;28;20197;-88
2022/01/29 08:54:46;;;;;;;8.50;7.60;;;9.50;99.90;;;;;;5098903;28;20215;-80
2022/01/29 08:57:13;;;;;;;9.77;7.83;;;9.60;99.90;;;;;;5098356;28;20257;-80
2022/01/29 08:59:41;;;;;;;8.03;7.33;;;9.60;99.90;;;;;;5098324;28;20201;-83
2022/01/29 09:02:08;;;;;;;8.73;7.07;;;9.60;99.90;;;;;;5099522;28;20763;-78
2022/01/29 09:04:36;;;;;;;8.20;6.93;;;9.70;99.90;;;;;;5098399;28;20541;-90
2022/01/29 09:07:09;;;;;;;7.40;6.70;;;9.70;99.90;;;;;;5100241;28;20193;-90
2022/01/29 09:09:39;;;;;;;8.80;5.83;;;9.70;99.90;;;;;;5097977;28;20201;-90
2022/01/29 09:12:08;;;;;;;7.43;5.77;;;9.70;99.90;;;;;;5099255;28;20291;-89
2022/01/29 09:14:35;;;;;;;11.43;5.83;;;9.70;99.90;;;;;;5099028;28;20205;-90
2022/01/29 09:17:05;;;;;;;7.70;5.80;;;9.80;99.90;;;;;;5079824;28;20262;-88
2022/01/29 09:19:36;;;;;;;6.90;5.23;;;9.80;99.90;;;;;;5098157;28;20719;-88
2022/01/29 09:22:06;;;;;;;7.50;5.37;;;9.80;99.90;;;;;;5097022;28;20236;-89
2022/01/29 09:24:36;;;;;;;7.70;4.73;;;9.80;99.90;;;;;;5097186;28;20198;-88
2022/01/29 09:27:12;;;;;;;6.90;5.17;;;9.90;99.90;;;;;;5096487;28;20254;-89
2022/01/29 09:29:41;;;;;;;7.27;4.63;;;9.80;99.90;;;;;;5097778;28;20490;-83
2022/01/29 09:32:09;;;;;;;6.17;4.13;;;10.00;99.90;;;;;;5099343;28;20216;-87
2022/01/29 09:34:40;;;;;;;5.07;3.63;;;10.00;99.90;;;;;;5098583;28;20586;-87
2022/01/29 09:37:10;;;;;;;5.17;3.50;;;9.90;99.90;;;;;;5097573;28;20197;-90
2022/01/29 09:39:43;;;;;;;4.00;3.50;;;9.90;99.90;;;;;;5097509;28;20208;-87
2022/01/29 09:42:14;;;;;;;7.60;3.93;;;9.90;99.90;;;;;;5097375;28;20290;-89
2022/01/29 09:44:42;;;;;;;6.63;3.50;;;9.90;99.90;;;;;;5098132;28;20208;-87
2022/01/29 09:47:16;;;;;;;8.53;4.27;;;9.90;99.90;;;;;;5098285;28;20212;-86
2022/01/29 09:49:48;;;;;;;6.67;3.67;;;9.90;99.90;;;;;;5097892;28;20258;-87
2022/01/29 09:52:20;;;;;;;7.10;3.60;;;9.90;99.90;;;;;;5099133;28;20310;-88
2022/01/29 09:54:50;;;;;;;7.57;3.80;;;10.00;99.90;;;;;;5098892;28;20240;-86
2022/01/29 09:57:19;;;;;;;5.30;3.53;;;10.00;99.90;;;;;;5098330;28;20205;-87
2022/01/29 09:59:47;;;;;;;6.93;3.67;;;10.00;99.90;;;;;;5098952;28;20213;-85
2022/01/29 10:02:19;;;;;;;6.00;3.60;;;10.00;99.90;;;;;;5096622;28;20612;-85
2022/01/29 10:04:51;;;;;;;8.27;3.30;;;10.00;99.90;;;;;;5098342;28;20668;-87
2022/01/29 10:07:25;;;;;;;5.00;3.75;;;10.10;99.90;;;;;;5096043;28;20430;-83
2022/01/29 10:09:54;;;;;;;6.43;3.50;;;10.30;99.90;;;;;;5095809;28;20204;-84
2022/01/29 10:12:27;;;;;;;4.30;3.33;;;10.30;99.90;;;;;;5097542;28;20507;-80
2022/01/29 10:14:56;;;;;;;3.70;3.07;;;10.30;99.90;;;;;;5095962;28;20287;-84
2022/01/29 10:17:43;;;;;;;6.20;3.60;;;10.40;99.90;;;;;;5094279;28;20216;-80
2022/01/29 10:20:15;;;;;;;5.07;3.70;;;10.40;99.90;;;;;;5093201;28;20204;-80
2022/01/29 10:22:44;;;;;;;4.97;3.00;;;10.50;99.90;;;;;;5093149;28;20739;-80
2022/01/29 10:25:13;;;;;;;3.60;2.70;;;10.60;99.90;;;;;;5094179;28;20209;-79
2022/01/29 10:28:06;;;;;;;5.13;3.00;;;10.70;99.90;;;;;;5094694;28;20186;-80
2022/01/29 10:30:33;;;;;;;3.17;2.83;;;10.60;99.90;;;;;;5076076;28;20194;-79
2022/01/29 10:33:19;;;;;;;4.00;2.90;;;10.80;99.90;;;;;;5094641;28;20205;-78
2022/01/29 10:35:50;;;;;;;2.90;2.57;;;10.70;99.90;;;;;;5093608;28;20227;-78
2022/01/29 10:38:21;;;;;;;3.57;2.70;;;10.80;99.90;;;;;;5094531;28;20201;-78
2022/01/29 10:41:09;;;;;;;3.27;2.97;;;10.80;99.90;;;;;;5094675;28;20236;-79
2022/01/29 10:43:36;;;;;;;3.90;2.80;;;10.90;99.90;;;;;;5094496;28;20517;-78
2022/01/29 10:46:03;;;;;;;6.47;2.40;;;10.90;99.90;;;;;;5094428;28;20569;-79
2022/01/29 10:48:43;;;;;;;7.07;2.60;;;11.00;99.90;;;;;;5094134;28;20212;-86
2022/01/29 10:51:12;;;;;;;3.50;2.23;;;11.00;99.90;;;;;;5092924;28;20204;-82
2022/01/29 10:53:40;;;;;;;9.73;2.30;;;11.10;99.90;;;;;;5093846;28;20569;-77
2022/01/29 10:56:06;;;;;;;3.10;2.10;;;11.10;99.90;;;;;;5093842;28;20205;-79
2022/01/29 10:58:40;;;;;;;2.33;2.00;;;11.10;99.90;;;;;;5094892;28;20231;-80
2022/01/29 11:01:15;;;;;;;2.90;2.03;;;11.00;99.90;;;;;;5095518;28;20616;-79
2022/01/29 11:03:42;;;;;;;3.30;2.03;;;11.10;99.90;;;;;;5093857;28;20212;-79
2022/01/29 11:06:11;;;;;;;1.80;1.63;;;11.10;99.90;;;;;;5093988;28;20196;-79
2022/01/29 11:08:39;;;;;;;4.83;1.63;;;11.10;99.90;;;;;;5095069;28;20284;-79
2022/01/29 11:11:09;;;;;;;3.87;2.27;;;11.00;99.90;;;;;;5094735;28;20235;-78
2022/01/29 11:13:36;;;;;;;2.03;1.80;;;11.00;99.90;;;;;;5095220;28;20282;-77
2022/01/29 11:16:05;;;;;;;5.57;2.13;;;11.00;99.90;;;;;;5095249;28;20190;-79
2022/01/29 11:18:33;;;;;;;4.63;1.90;;;11.10;99.90;;;;;;5093964;28;20633;-79
2022/01/29 11:21:01;;;;;;;4.67;2.40;;;11.10;99.90;;;;;;5094612;28;20205;-80
2022/01/29 11:23:30;;;;;;;3.43;2.10;;;11.00;99.90;;;;;;5094794;28;20310;-84
2022/01/29 11:25:59;;;;;;;3.77;1.93;;;11.10;99.90;;;;;;5095298;28;20219;-77
2022/01/29 11:28:27;;;;;;;3.43;1.93;;;11.00;99.90;;;;;;5094484;28;20648;-77
2022/01/29 11:31:21;;;;;;;4.20;1.80;;;11.10;99.90;;;;;;5093807;28;20191;-80
2022/01/29 11:34:25;;;;;;;7.07;2.33;;;11.10;99.90;;;;;;5095447;28;20197;-82
2022/01/29 11:37:10;;;;;;;3.20;2.00;;;11.20;99.90;;;;;;5094752;28;20201;-80
2022/01/29 11:39:38;;;;;;;6.43;2.17;;;11.20;99.90;;;;;;5093832;28;20565;-79
2022/01/29 11:42:31;;;;;;;5.83;2.20;;;11.20;99.90;;;;;;5093656;28;20235;-79
2022/01/29 11:44:58;;;;;;;5.83;2.60;;;11.20;99.90;;;;;;5094609;28;20193;-78
2022/01/29 11:47:46;;;;;;;5.03;2.67;;;11.20;99.90;;;;;;5094673;28;20208;-80
2022/01/29 11:50:53;;;;;;;5.27;2.37;;;11.10;99.90;;;;;;5089394;28;20216;-80
2022/01/29 11:53:20;;;;;;;6.53;3.00;;;11.20;99.90;;;;;;5088415;28;20216;-78
2022/01/29 11:55:51;;;;;;;5.43;3.03;;;11.30;99.90;;;;;;5094278;28;20210;-78
2022/01/29 11:58:26;;;;;;;6.72;3.63;;;11.30;99.90;;;;;;5093199;28;20425;-79
2022/01/29 12:00:56;;;;;;;12.63;3.50;;;11.40;99.90;;;;;;5091666;28;20237;-82
2022/01/29 12:03:54;;;;;;;7.43;3.30;;;11.40;99.90;;;;;;5093751;28;20253;-83
2022/01/29 12:06:29;;;;;;;4.27;3.10;;;11.40;99.90;;;;;;5075875;28;20638;-84
2022/01/29 12:09:24;;;;;;;5.67;2.60;;;11.50;99.90;;;;;;5093149;28;20189;-86
2022/01/29 12:12:25;;;;;;;4.70;2.40;;;11.50;99.90;;;;;;5093511;28;20724;-83
2022/01/29 12:14:57;;;;;;;7.17;2.17;;;11.60;99.90;;;;;;5092780;28;20660;-83
2022/01/29 12:17:40;;;;;;;5.77;1.80;;;11.60;99.90;;;;;;5094190;28;20208;-82
2022/01/29 12:20:09;;;;;;;12.87;2.60;;;11.60;99.90;;;;;;5093129;28;20205;-80
2022/01/29 12:22:37;;;;;;;5.03;2.40;;;11.60;99.90;;;;;;5092751;28;20220;-81
2022/01/29 12:25:06;;;;;;;6.57;2.73;;;11.60;99.90;;;;;;5092505;28;20210;-81
2022/01/29 12:27:47;;;;;;;6.60;2.83;;;11.60;99.90;;;;;;5093304;28;20224;-83
2022/01/29 12:30:15;;;;;;;4.53;2.67;;;11.60;99.90;;;;;;5093451;28;20205;-83
2022/01/29 12:33:01;;;;;;;5.07;2.53;;;11.60;99.90;;;;;;5083128;28;20213;-83
2022/01/29 12:35:40;;;;;;;3.97;2.40;;;11.70;99.90;;;;;;5073315;28;20188;-84
2022/01/29 12:38:08;;;;;;;4.40;2.53;;;11.90;99.90;;;;;;5079570;28;20203;-86
2022/01/29 12:40:39;;;;;;;6.83;2.90;;;11.80;99.90;;;;;;5093438;28;20668;-82
2022/01/29 12:43:27;;;;;;;5.03;2.80;;;11.80;99.90;;;;;;5095234;28;20588;-85
2022/01/29 12:46:06;;;;;;;8.20;2.23;;;11.80;99.90;;;;;;5094063;28;20625;-82
2022/01/29 12:48:33;;;;;;;5.17;2.20;;;11.80;99.90;;;;;;5090424;28;20593;-84
2022/01/29 12:51:05;;;;;;;5.27;2.30;;;11.80;99.90;;;;;;5099484;28;20202;-85
2022/01/29 12:53:34;;;;;;;5.50;2.77;;;11.80;99.90;;;;;;5081615;28;20206;-82
2022/01/29 12:56:03;;;;;;;6.20;2.50;;;11.70;99.90;;;;;;5089576;28;20294;-81
2022/01/29 12:58:33;;;;;;;7.63;2.10;;;11.70;99.90;;;;;;5091217;28;20206;-81
2022/01/29 13:01:08;;;;;;;5.77;2.40;;;11.60;99.90;;;;;;5093616;28;20630;-80
2022/01/29 13:03:39;;;;;;;7.27;2.63;;;11.70;99.90;;;;;;5093275;28;20228;-80
2022/01/29 13:06:08;;;;;;;6.40;2.60;;;11.70;99.90;;;;;;5092902;28;20203;-80
2022/01/29 13:08:35;;;;;;;5.80;2.07;;;11.80;99.90;;;;;;5092441;28;20307;-79
2022/01/29 13:11:02;;;;;;;6.47;2.10;;;11.80;99.90;;;;;;5093181;28;20355;-82
2022/01/29 13:13:32;;;;;;;8.77;2.10;;;11.80;99.90;;;;;;5093630;28;20198;-82
2022/01/29 13:15:59;;;;;;;7.83;2.40;;;11.90;99.90;;;;;;5092661;28;20198;-81
2022/01/29 13:18:27;;;;;;;5.97;2.37;;;12.00;99.90;;;;;;5091449;28;20238;-80